Time;durP1;ratioP1;P1;durP2;ratioP2;P2;SDS_P1;SDS_P2;PMS_P1;PMS_P2;Temp;Humidity;BMP_temperature;BMP_pressure;BME280_temperature;BME280_humidity;BME280_pressure;Samples;Min_cycle;Max_cycle;Signal;HPM_P1;HPM_P2
2022/10/23 00:01:21;;;;;;;409.13;155.65;;;;;;;;;;4936199;29;20047;-75
2022/10/23 00:04:12;;;;;;;369.95;138.30;;;;;;;;;;4935748;29;20043;-77
2022/10/23 00:06:58;;;;;;;396.45;144.77;;;;;;;;;;4935833;29;20517;-76
2022/10/23 00:09:44;;;;;;;399.70;152.07;;;;;;;;;;4936399;29;20047;-76
2022/10/23 00:12:30;;;;;;;503.83;215.30;;;;;;;;;;4936385;29;20060;-78
2022/10/23 00:15:19;;;;;;;544.85;233.93;;;;;;;;;;4936050;29;20044;-77
2022/10/23 00:18:04;;;;;;;527.47;233.82;;;;;;;;;;4936474;29;20386;-78
2022/10/23 00:20:51;;;;;;;546.35;237.90;;;;;;;;;;4942472;29;20048;-77
2022/10/23 00:23:39;;;;;;;522.00;224.93;;;;;;;;;;4936320;29;20039;-77
2022/10/23 00:26:25;;;;;;;491.40;203.75;;;;;;;;;;4936346;29;20493;-77
2022/10/23 00:29:12;;;;;;;479.98;193.88;;;;;;;;;;4935977;29;20047;-77
2022/10/23 00:31:58;;;;;;;463.73;181.85;;;;;;;;;;4941528;29;20048;-76
2022/10/23 00:34:43;;;;;;;452.77;179.48;;;;;;;;;;4943125;29;20394;-76
2022/10/23 00:37:29;;;;;;;435.10;168.23;;;;;;;;;;4939486;29;20047;-77
2022/10/23 00:40:16;;;;;;;424.83;164.55;;;;;;;;;;4945215;29;20048;-77
2022/10/23 00:43:02;;;;;;;411.63;156.27;;;;;;;;;;4944944;29;20048;-77
2022/10/23 00:45:48;;;;;;;347.08;130.27;;;;;;;;;;4944757;29;20048;-76
2022/10/23 00:48:34;;;;;;;499.95;257.15;;;;;;;;;;4946089;29;20036;-76
2022/10/23 00:51:20;;;;;;;485.45;244.23;;;;;;;;;;4939821;29;20052;-76
2022/10/23 00:54:06;;;;;;;397.88;187.02;;;;;;;;;;4939436;29;20056;-76
2022/10/23 00:56:59;;;;;;;350.13;132.05;;;;;;;;;;4944522;29;20043;-76
2022/10/23 00:59:45;;;;;;;330.15;119.47;;;;;;;;;;4939240;29;20052;-76
2022/10/23 01:02:30;;;;;;;316.33;116.35;;;;;;;;;;4938921;29;20498;-75
2022/10/23 01:05:20;;;;;;;295.90;108.70;;;;;;;;;;4944600;29;20493;-75
2022/10/23 01:08:12;;;;;;;329.98;112.50;;;;;;;;;;4944413;29;20044;-75
2022/10/23 01:11:30;;;;;;;239.02;90.35;;;;;;;;;;4938957;29;20044;-77
2022/10/23 01:14:30;;;;;;;209.93;78.20;;;;;;;;;;4939366;29;20469;-75
2022/10/23 01:17:24;;;;;;;206.40;72.28;;;;;;;;;;4944330;29;20040;-76
2022/10/23 01:20:25;;;;;;;167.93;57.88;;;;;;;;;;4944373;29;20486;-74
2022/10/23 01:23:16;;;;;;;138.13;46.63;;;;;;;;;;4944676;29;20048;-77
2022/10/23 01:26:28;;;;;;;124.07;43.45;;;;;;;;;;4944286;29;20043;-77
2022/10/23 01:29:33;;;;;;;108.60;37.45;;;;;;;;;;4944145;29;20051;-76
2022/10/23 01:32:51;;;;;;;98.90;34.17;;;;;;;;;;4943922;29;20040;-74
2022/10/23 01:35:54;;;;;;;69.72;26.85;;;;;;;;;;4945289;29;20482;-74
2022/10/23 01:38:56;;;;;;;63.05;25.30;;;;;;;;;;4938597;29;20051;-74
2022/10/23 01:41:58;;;;;;;71.30;27.30;;;;;;;;;;4943760;29;20051;-76
2022/10/23 01:44:55;;;;;;;;;;;;;;;;;;4943953;29;20043;-76
2022/10/23 01:47:48;;;;;;;138.05;49.58;;;;;;;;;;4938040;29;19923;-75
2022/10/23 01:50:38;;;;;;;136.70;48.70;;;;;;;;;;4943166;29;20051;-76
2022/10/23 01:53:30;;;;;;;146.32;50.08;;;;;;;;;;4943564;29;20047;-76
2022/10/23 01:56:25;;;;;;;136.23;48.58;;;;;;;;;;4943471;29;20039;-75
2022/10/23 01:59:17;;;;;;;124.03;45.65;;;;;;;;;;4921079;29;20079;-75
2022/10/23 02:02:09;;;;;;;112.25;40.80;;;;;;;;;;4943338;29;20378;-75
2022/10/23 02:05:05;;;;;;;85.88;34.53;;;;;;;;;;4943435;29;20394;-76
2022/10/23 02:07:52;;;;;;;86.32;33.92;;;;;;;;;;4943983;29;20052;-75
2022/10/23 02:11:15;;;;;;;88.18;36.25;;;;;;;;;;4943245;29;20405;-75
2022/10/23 02:14:12;;;;;;;92.10;35.22;;;;;;;;;;4894794;29;20044;-75
2022/10/23 02:17:08;;;;;;;97.78;40.28;;;;;;;;;;4937998;29;20035;-75
2022/10/23 02:20:08;;;;;;;98.63;38.83;;;;;;;;;;4943201;29;20051;-76
2022/10/23 02:23:13;;;;;;;115.88;41.72;;;;;;;;;;4937881;29;20051;-75
2022/10/23 02:26:08;;;;;;;108.32;41.97;;;;;;;;;;4942871;29;20040;-76
2022/10/23 02:29:25;;;;;;;96.93;38.85;;;;;;;;;;4929439;29;20048;-75
2022/10/23 02:32:12;;;;;;;108.57;40.95;;;;;;;;;;4919018;29;20047;-75
2022/10/23 02:34:58;;;;;;;101.30;40.38;;;;;;;;;;4942559;29;20051;-75
2022/10/23 02:37:54;;;;;;;94.22;37.00;;;;;;;;;;4943654;29;20489;-75
2022/10/23 02:40:44;;;;;;;71.90;32.05;;;;;;;;;;4942941;29;20043;-75
2022/10/23 02:43:38;;;;;;;73.30;33.10;;;;;;;;;;4943420;29;20397;-75
2022/10/23 02:46:45;;;;;;;80.43;35.13;;;;;;;;;;4942376;29;20378;-75
2022/10/23 02:49:46;;;;;;;68.72;31.15;;;;;;;;;;4942465;29;20509;-75
2022/10/23 02:52:53;;;;;;;59.88;25.45;;;;;;;;;;4936559;29;20048;-75
2022/10/23 02:55:57;;;;;;;44.75;21.02;;;;;;;;;;4942379;29;20154;-76
2022/10/23 02:58:55;;;;;;;39.58;18.95;;;;;;;;;;4931325;29;20040;-76
2022/10/23 03:01:46;;;;;;;29.73;15.93;;;;;;;;;;4941477;29;20051;-75
2022/10/23 03:04:33;;;;;;;24.50;12.93;;;;;;;;;;4941743;29;20402;-75
2022/10/23 03:07:19;;;;;;;24.45;12.73;;;;;;;;;;4936970;29;20043;-75
2022/10/23 03:10:07;;;;;;;23.55;12.30;;;;;;;;;;4942056;29;20055;-76
2022/10/23 03:12:53;;;;;;;27.15;12.20;;;;;;;;;;4943221;29;20043;-76
2022/10/23 03:15:39;;;;;;;21.13;11.75;;;;;;;;;;4942264;29;20051;-76
2022/10/23 03:18:25;;;;;;;28.65;12.07;;;;;;;;;;4942308;29;20433;-75
2022/10/23 03:21:10;;;;;;;25.02;12.88;;;;;;;;;;4936613;29;20051;-75
2022/10/23 03:23:56;;;;;;;25.73;14.55;;;;;;;;;;4936450;29;20043;-75
2022/10/23 03:26:51;;;;;;;30.17;13.85;;;;;;;;;;4941855;29;20052;-75
2022/10/23 03:29:38;;;;;;;23.83;13.52;;;;;;;;;;4942024;29;20044;-75
2022/10/23 03:32:24;;;;;;;24.58;13.15;;;;;;;;;;4941846;29;20047;-75
2022/10/23 03:35:10;;;;;;;22.73;13.57;;;;;;;;;;4942255;29;20055;-75
2022/10/23 03:37:56;;;;;;;20.00;11.52;;;;;;;;;;4941810;29;20047;-75
2022/10/23 03:40:44;;;;;;;18.08;11.07;;;;;;;;;;4941783;29;20048;-75
2022/10/23 03:43:31;;;;;;;21.35;10.50;;;;;;;;;;4941975;29;20047;-75
2022/10/23 03:46:18;;;;;;;24.60;10.23;;;;;;;;;;4936199;29;20044;-75
2022/10/23 03:49:08;;;;;;;18.23;9.68;;;;;;;;;;4941832;29;20047;-75
2022/10/23 03:51:54;;;;;;;21.55;10.45;;;;;;;;;;4936539;29;20044;-75
2022/10/23 03:54:40;;;;;;;20.73;10.27;;;;;;;;;;4942714;29;20048;-75
2022/10/23 03:57:26;;;;;;;21.73;10.75;;;;;;;;;;4936157;29;20039;-75
2022/10/23 04:00:12;;;;;;;23.02;11.20;;;;;;;;;;4941605;29;20051;-75
2022/10/23 04:03:05;;;;;;;21.08;10.63;;;;;;;;;;4941604;29;20044;-75
2022/10/23 04:05:54;;;;;;;18.67;9.85;;;;;;;;;;4941729;29;20051;-75
2022/10/23 04:08:42;;;;;;;16.25;9.30;;;;;;;;;;4941859;29;20048;-75
2022/10/23 04:11:33;;;;;;;17.38;9.23;;;;;;;;;;4945374;29;20056;-75
2022/10/23 04:14:20;;;;;;;20.65;8.65;;;;;;;;;;4939859;29;20425;-75
2022/10/23 04:17:06;;;;;;;15.32;8.73;;;;;;;;;;4945160;29;20044;-75
2022/10/23 04:19:51;;;;;;;16.13;9.18;;;;;;;;;;4945095;29;20048;-75
2022/10/23 04:22:37;;;;;;;16.08;9.35;;;;;;;;;;4939831;29;20048;-76
2022/10/23 04:25:23;;;;;;;17.70;9.48;;;;;;;;;;4931810;29;20474;-75
2022/10/23 04:28:09;;;;;;;18.17;9.48;;;;;;;;;;4944747;29;20401;-75
2022/10/23 04:30:57;;;;;;;18.90;9.88;;;;;;;;;;4945575;29;20047;-75
2022/10/23 04:33:44;;;;;;;16.55;9.57;;;;;;;;;;4946196;29;20051;-75
2022/10/23 04:36:47;;;;;;;19.30;9.98;;;;;;;;;;4946157;29;20043;-77
2022/10/23 04:39:33;;;;;;;17.10;9.75;;;;;;;;;;4945848;29;20055;-75
2022/10/23 04:42:19;;;;;;;20.95;8.82;;;;;;;;;;4944792;29;20048;-75
2022/10/23 04:45:06;;;;;;;17.98;10.05;;;;;;;;;;4945029;29;20051;-74
2022/10/23 04:47:55;;;;;;;16.85;9.35;;;;;;;;;;4944454;29;20048;-76
2022/10/23 04:50:42;;;;;;;18.67;10.07;;;;;;;;;;4943626;29;20059;-76
2022/10/23 04:53:44;;;;;;;27.90;13.98;;;;;;;;;;4944512;29;20044;-76
2022/10/23 04:56:50;;;;;;;37.60;17.30;;;;;;;;;;4936958;29;20043;-75
2022/10/23 04:59:39;;;;;;;28.73;15.13;;;;;;;;;;4944575;29;20047;-75
2022/10/23 05:02:26;;;;;;;27.00;13.40;;;;;;;;;;4944335;29;20052;-75
2022/10/23 05:05:13;;;;;;;30.05;13.93;;;;;;;;;;4944348;29;20048;-75
2022/10/23 05:08:25;;;;;;;25.05;12.55;;;;;;;;;;4933244;29;20419;-77
2022/10/23 05:11:39;;;;;;;28.90;14.55;;;;;;;;;;4944456;29;20044;-75
2022/10/23 05:14:26;;;;;;;45.13;23.02;;;;;;;;;;4944145;29;20047;-75
2022/10/23 05:17:38;;;;;;;29.65;14.98;;;;;;;;;;4938738;29;20047;-75
2022/10/23 05:20:27;;;;;;;22.10;12.02;;;;;;;;;;4938615;29;20044;-75
2022/10/23 05:23:17;;;;;;;23.35;12.63;;;;;;;;;;4938695;29;20048;-76
2022/10/23 05:26:12;;;;;;;27.27;10.98;;;;;;;;;;4944081;29;20051;-75
2022/10/23 05:29:00;;;;;;;24.33;11.32;;;;;;;;;;4944053;29;20048;-75
2022/10/23 05:31:49;;;;;;;21.00;10.95;;;;;;;;;;4943846;29;20043;-75
2022/10/23 05:34:37;;;;;;;25.02;10.35;;;;;;;;;;4944794;29;20052;-75
2022/10/23 05:37:24;;;;;;;16.92;10.80;;;;;;;;;;4943859;29;20044;-76
2022/10/23 05:40:20;;;;;;;26.48;11.27;;;;;;;;;;4943769;29;20051;-75
2022/10/23 05:43:07;;;;;;;28.48;12.02;;;;;;;;;;4943631;29;20429;-76
2022/10/23 05:46:21;;;;;;;20.52;9.98;;;;;;;;;;4938471;29;20043;-76
2022/10/23 05:49:26;;;;;;;23.50;11.30;;;;;;;;;;4937774;29;20047;-76
2022/10/23 05:52:38;;;;;;;18.50;9.68;;;;;;;;;;4927944;29;20044;-75
2022/10/23 05:55:24;;;;;;;19.50;9.98;;;;;;;;;;4938070;29;20044;-76
2022/10/23 05:58:19;;;;;;;16.45;9.68;;;;;;;;;;4937876;29;20043;-75
2022/10/23 06:01:28;;;;;;;22.17;11.98;;;;;;;;;;4943999;29;20048;-76
2022/10/23 06:04:18;;;;;;;21.42;12.50;;;;;;;;;;4943415;29;20048;-76
2022/10/23 06:07:36;;;;;;;27.40;12.52;;;;;;;;;;4923644;29;20505;-76
2022/10/23 06:10:25;;;;;;;29.33;15.23;;;;;;;;;;4943486;29;20044;-76
2022/10/23 06:13:12;;;;;;;26.88;14.00;;;;;;;;;;4943555;29;20055;-76
2022/10/23 06:15:57;;;;;;;28.67;12.98;;;;;;;;;;4929930;29;20047;-76
2022/10/23 06:18:45;;;;;;;21.73;11.23;;;;;;;;;;4943030;29;20482;-76
2022/10/23 06:21:36;;;;;;;20.10;10.55;;;;;;;;;;4942985;29;20048;-76
2022/10/23 06:24:22;;;;;;;21.20;10.63;;;;;;;;;;4942977;29;20047;-76
2022/10/23 06:27:12;;;;;;;21.83;11.18;;;;;;;;;;4942871;29;20047;-75
2022/10/23 06:30:02;;;;;;;20.35;11.15;;;;;;;;;;4943346;29;20051;-76
2022/10/23 06:32:48;;;;;;;33.80;12.90;;;;;;;;;;4941915;29;20425;-75
2022/10/23 06:35:34;;;;;;;30.52;12.20;;;;;;;;;;4943354;29;20039;-76
2022/10/23 06:38:21;;;;;;;22.83;11.10;;;;;;;;;;4937494;29;20052;-76
2022/10/23 06:41:16;;;;;;;17.63;10.23;;;;;;;;;;4942664;29;20481;-75
2022/10/23 06:44:03;;;;;;;19.00;9.07;;;;;;;;;;4942911;29;20047;-75
2022/10/23 06:47:09;;;;;;;17.92;9.23;;;;;;;;;;4942368;29;20056;-76
2022/10/23 06:50:13;;;;;;;17.38;9.10;;;;;;;;;;4935614;29;20406;-74
2022/10/23 06:53:01;;;;;;;20.35;9.32;;;;;;;;;;4942367;29;20055;-75
2022/10/23 06:55:47;;;;;;;16.77;9.25;;;;;;;;;;4942783;29;20051;-75
2022/10/23 06:58:35;;;;;;;16.05;8.50;;;;;;;;;;4945902;29;20043;-75
2022/10/23 07:01:28;;;;;;;14.80;8.95;;;;;;;;;;4934648;29;20465;-76
2022/10/23 07:04:14;;;;;;;17.30;10.10;;;;;;;;;;4936738;29;20055;-75
2022/10/23 07:07:01;;;;;;;20.30;10.93;;;;;;;;;;4942216;29;20047;-74
2022/10/23 07:09:56;;;;;;;24.98;13.98;;;;;;;;;;4942103;29;20043;-76
2022/10/23 07:12:59;;;;;;;21.17;13.80;;;;;;;;;;4942067;29;20051;-76
2022/10/23 07:15:53;;;;;;;19.52;10.00;;;;;;;;;;4936469;29;20498;-76
2022/10/23 07:18:43;;;;;;;88.00;52.08;;;;;;;;;;4942269;29;20039;-76
2022/10/23 07:21:47;;;;;;;55.38;33.15;;;;;;;;;;4936495;29;20043;-76
2022/10/23 07:24:53;;;;;;;36.85;21.45;;;;;;;;;;4931980;29;20044;-76
2022/10/23 07:27:43;;;;;;;20.13;11.40;;;;;;;;;;4941716;29;20040;-77
2022/10/23 07:30:29;;;;;;;28.23;15.95;;;;;;;;;;4942240;29;20051;-77
2022/10/23 07:33:17;;;;;;;25.08;16.15;;;;;;;;;;4941951;29;20047;-81
2022/10/23 07:36:16;;;;;;;43.67;27.75;;;;;;;;;;4941622;29;20051;-78
2022/10/23 07:39:02;;;;;;;35.80;20.00;;;;;;;;;;4936529;29;20489;-79
2022/10/23 07:41:49;;;;;;;32.22;16.23;;;;;;;;;;4941737;29;20047;-80
2022/10/23 07:44:37;;;;;;;17.17;9.85;;;;;;;;;;4942357;29;20047;-78
2022/10/23 07:47:24;;;;;;;15.65;9.35;;;;;;;;;;4941678;29;20048;-79
2022/10/23 07:50:11;;;;;;;22.42;12.77;;;;;;;;;;4942347;29;20052;-79
2022/10/23 07:52:57;;;;;;;21.33;11.25;;;;;;;;;;4936321;29;20052;-76
2022/10/23 07:55:53;;;;;;;21.63;11.15;;;;;;;;;;4941791;29;20528;-76
2022/10/23 07:58:39;;;;;;;19.13;10.88;;;;;;;;;;4941505;29;20486;-76
2022/10/23 08:01:36;;;;;;;17.10;10.27;;;;;;;;;;4941726;29;20044;-76
2022/10/23 08:04:23;;;;;;;21.65;11.20;;;;;;;;;;4941404;29;20417;-76
2022/10/23 08:07:18;;;;;;;24.65;11.20;;;;;;;;;;4941714;29;20043;-76
2022/10/23 08:10:05;;;;;;;22.85;11.05;;;;;;;;;;4941411;29;20039;-76
2022/10/23 08:12:52;;;;;;;22.13;10.77;;;;;;;;;;4941555;29;20155;-76
2022/10/23 08:15:50;;;;;;;22.70;10.38;;;;;;;;;;4941262;29;20043;-76
2022/10/23 08:18:55;;;;;;;21.27;10.52;;;;;;;;;;4942803;29;20036;-75
2022/10/23 08:21:40;;;;;;;18.75;10.35;;;;;;;;;;4941266;29;20048;-75
2022/10/23 08:24:29;;;;;;;17.45;10.35;;;;;;;;;;4941336;29;20051;-75
2022/10/23 08:27:14;;;;;;;20.27;12.07;;;;;;;;;;4941178;29;20044;-75
2022/10/23 08:30:04;;;;;;;22.40;12.23;;;;;;;;;;4941556;29;20051;-77
2022/10/23 08:32:49;;;;;;;22.50;12.88;;;;;;;;;;4943770;29;20386;-74
2022/10/23 08:35:36;;;;;;;23.73;13.57;;;;;;;;;;4935771;29;20048;-74
2022/10/23 08:38:22;;;;;;;40.03;19.17;;;;;;;;;;4941040;29;20397;-76
2022/10/23 08:41:36;;;;;;;35.15;17.20;;;;;;;;;;4941330;29;20047;-75
2022/10/23 08:44:43;;;;;;;24.48;10.02;;;;;;;;;;4927680;29;20039;-77
2022/10/23 08:47:37;;;;;;;16.60;7.82;;;;;;;;;;4940941;29;20048;-74
2022/10/23 08:50:46;;;;;;;16.80;7.30;;;;;;;;;;4935853;29;20473;-77
2022/10/23 08:53:40;;;;;;;10.10;5.03;;;;;;;;;;4935724;29;20048;-76
2022/10/23 08:56:36;;;;;;;14.98;6.22;;;;;;;;;;4941925;29;20039;-77
2022/10/23 08:59:26;;;;;;;13.73;5.25;;;;;;;;;;4938815;29;20047;-76
2022/10/23 09:02:21;;;;;;;10.40;5.60;;;;;;;;;;4938767;29;20051;-76
2022/10/23 09:05:54;;;;;;;43.15;17.48;;;;;;;;;;4945494;29;20485;-79
2022/10/23 09:08:51;;;;;;;19.35;9.40;;;;;;;;;;4842708;29;20038;-78
2022/10/23 09:11:41;;;;;;;21.33;9.13;;;;;;;;;;4945081;29;20405;-76
2022/10/23 09:14:54;;;;;;;16.50;8.85;;;;;;;;;;4938573;29;20390;-77
2022/10/23 09:17:42;;;;;;;12.30;6.63;;;;;;;;;;4934181;29;20405;-77
2022/10/23 09:20:33;;;;;;;14.80;6.90;;;;;;;;;;4938913;29;20048;-76
2022/10/23 09:23:21;;;;;;;11.15;6.72;;;;;;;;;;4938708;29;20051;-76
2022/10/23 09:26:17;;;;;;;11.50;6.50;;;;;;;;;;4938219;29;20043;-79
2022/10/23 09:29:17;;;;;;;11.48;6.43;;;;;;;;;;4944728;29;20056;-76
2022/10/23 09:32:05;;;;;;;12.95;7.30;;;;;;;;;;4937325;29;20036;-76
2022/10/23 09:34:54;;;;;;;10.25;6.90;;;;;;;;;;4938731;29;20051;-78
2022/10/23 09:37:47;;;;;;;13.48;6.47;;;;;;;;;;4938449;29;20390;-76
2022/10/23 09:40:43;;;;;;;11.52;6.20;;;;;;;;;;4944659;29;20051;-76
2022/10/23 09:43:29;;;;;;;12.65;6.05;;;;;;;;;;4950247;29;20043;-80
2022/10/23 09:46:20;;;;;;;14.18;6.07;;;;;;;;;;4935877;29;20047;-77
2022/10/23 09:49:06;;;;;;;12.90;6.75;;;;;;;;;;4937866;29;20039;-77
2022/10/23 09:52:11;;;;;;;14.00;6.60;;;;;;;;;;4923915;29;20063;-76
2022/10/23 09:55:00;;;;;;;12.75;7.15;;;;;;;;;;4938247;29;20044;-75
2022/10/23 09:57:46;;;;;;;9.85;5.65;;;;;;;;;;4944077;29;20031;-76
2022/10/23 10:00:32;;;;;;;10.30;5.72;;;;;;;;;;4937400;29;20497;-77
2022/10/23 10:03:21;;;;;;;16.25;6.80;;;;;;;;;;4937650;29;20043;-77
2022/10/23 10:06:27;;;;;;;16.17;7.22;;;;;;;;;;4942765;29;20043;-76
2022/10/23 10:09:14;;;;;;;13.40;6.72;;;;;;;;;;4937536;29;20052;-77
2022/10/23 10:12:29;;;;;;;13.70;7.10;;;;;;;;;;4937864;29;20446;-78
2022/10/23 10:15:26;;;;;;;12.40;6.43;;;;;;;;;;4937809;29;20409;-77
2022/10/23 10:18:29;;;;;;;9.02;5.88;;;;;;;;;;4937871;29;20475;-78
2022/10/23 10:21:30;;;;;;;13.65;5.63;;;;;;;;;;4937714;29;20051;-76
2022/10/23 10:24:27;;;;;;;14.35;6.60;;;;;;;;;;4942705;29;20043;-76
2022/10/23 10:27:21;;;;;;;9.10;3.67;;;;;;;;;;4937091;29;20044;-77
2022/10/23 10:30:11;;;;;;;;;;;;;;;;;;4940564;29;20470;-74
2022/10/23 10:33:13;;;;;;;4.68;3.60;;;;;;;;;;4944065;29;19940;-77
2022/10/23 10:36:15;;;;;;;6.93;3.70;;;;;;;;;;4937341;29;20047;-76
2022/10/23 10:39:03;;;;;;;8.70;3.75;;;;;;;;;;4937254;29;20043;-75
2022/10/23 10:42:22;;;;;;;6.60;3.58;;;;;;;;;;4936839;29;20047;-75
2022/10/23 10:45:25;;;;;;;9.13;4.03;;;;;;;;;;4937061;29;20043;-75
2022/10/23 10:48:49;;;;;;;7.15;4.05;;;;;;;;;;4936575;29;20043;-76
2022/10/23 10:52:22;;;;;;;6.60;3.72;;;;;;;;;;4938606;29;20052;-76
2022/10/23 10:55:28;;;;;;;7.38;3.85;;;;;;;;;;4936820;29;20044;-77
2022/10/23 10:58:22;;;;;;;7.40;3.58;;;;;;;;;;4943079;29;20393;-76
2022/10/23 11:01:18;;;;;;;6.93;4.13;;;;;;;;;;4935772;29;20043;-77
2022/10/23 11:04:21;;;;;;;6.43;4.00;;;;;;;;;;4934693;29;20048;-76
2022/10/23 11:07:17;;;;;;;10.13;4.03;;;;;;;;;;4941026;29;20047;-75
2022/10/23 11:10:14;;;;;;;10.57;3.67;;;;;;;;;;4934417;29;20040;-75
2022/10/23 11:13:00;;;;;;;8.38;3.85;;;;;;;;;;4934316;29;20043;-76
2022/10/23 11:15:46;;;;;;;8.55;3.47;;;;;;;;;;4937082;29;20039;-76
2022/10/23 11:18:32;;;;;;;9.02;3.95;;;;;;;;;;4939993;29;20051;-76
2022/10/23 11:21:28;;;;;;;13.07;4.32;;;;;;;;;;4936688;29;20051;-77
2022/10/23 11:24:32;;;;;;;;;;;;;;;;;;4937158;29;20043;-77
2022/10/23 11:27:41;;;;;;;9.85;4.03;;;;;;;;;;4941696;29;19915;-76
2022/10/23 11:30:52;;;;;;;9.98;4.00;;;;;;;;;;4942217;29;20057;-77
2022/10/23 11:33:38;;;;;;;7.68;4.00;;;;;;;;;;4936466;29;20047;-77
2022/10/23 11:36:45;;;;;;;7.60;3.78;;;;;;;;;;4936709;29;20044;-75
2022/10/23 11:39:33;;;;;;;8.15;3.50;;;;;;;;;;4936542;29;20047;-76
2022/10/23 11:42:44;;;;;;;10.52;4.05;;;;;;;;;;4934759;29;20044;-76
2022/10/23 11:45:35;;;;;;;9.25;4.10;;;;;;;;;;4936709;29;20043;-77
2022/10/23 11:48:41;;;;;;;16.02;4.97;;;;;;;;;;4936120;29;20486;-77
2022/10/23 11:51:36;;;;;;;8.82;4.22;;;;;;;;;;4939559;29;20051;-78
2022/10/23 11:54:25;;;;;;;8.32;3.60;;;;;;;;;;4936288;29;20040;-78
2022/10/23 11:57:16;;;;;;;6.60;3.63;;;;;;;;;;4936246;29;20047;-78
2022/10/23 12:00:02;;;;;;;7.10;3.47;;;;;;;;;;4937053;29;20498;-78
2022/10/23 12:02:59;;;;;;;7.85;4.15;;;;;;;;;;4936187;29;20047;-75
2022/10/23 12:05:45;;;;;;;9.05;4.07;;;;;;;;;;4948257;29;20043;-76
2022/10/23 12:08:36;;;;;;;9.75;3.95;;;;;;;;;;4946871;29;20047;-76
2022/10/23 12:11:46;;;;;;;7.13;3.80;;;;;;;;;;4955041;29;20040;-76
2022/10/23 12:14:36;;;;;;;11.60;4.30;;;;;;;;;;4959159;29;20047;-77
2022/10/23 12:17:34;;;;;;;10.35;4.47;;;;;;;;;;4950098;29;20052;-78
2022/10/23 12:20:36;;;;;;;7.70;3.90;;;;;;;;;;4952608;29;20059;-79
2022/10/23 12:23:42;;;;;;;15.23;3.80;;;;;;;;;;4932698;29;20051;-77
2022/10/23 12:26:31;;;;;;;10.90;7.10;;;;;;;;;;4938642;29;20048;-76
2022/10/23 12:29:42;;;;;;;12.00;5.40;;;;;;;;;;4938111;29;20044;-78
2022/10/23 12:32:53;;;;;;;166.07;131.43;;;;;;;;;;4940379;29;20486;-76
2022/10/23 12:35:55;;;;;;;16.30;11.02;;;;;;;;;;4939847;29;20486;-77
2022/10/23 12:38:48;;;;;;;24.45;15.07;;;;;;;;;;4940145;29;20035;-77
2022/10/23 12:41:37;;;;;;;124.28;95.13;;;;;;;;;;4939619;29;20502;-77
2022/10/23 12:44:26;;;;;;;28.67;15.38;;;;;;;;;;4939282;29;20047;-77
2022/10/23 12:47:17;;;;;;;13.45;7.93;;;;;;;;;;4945025;29;20055;-76
2022/10/23 12:50:02;;;;;;;13.18;5.60;;;;;;;;;;4939471;29;20481;-76
2022/10/23 12:52:52;;;;;;;9.75;4.70;;;;;;;;;;4940773;29;20048;-77
2022/10/23 12:55:52;;;;;;;10.70;5.90;;;;;;;;;;4939418;29;20055;-75
2022/10/23 12:58:47;;;;;;;11.07;5.07;;;;;;;;;;4939285;29;20035;-75
2022/10/23 13:01:33;;;;;;;;;;;;;;;;;;4939041;29;20378;-76
2022/10/23 13:04:27;;;;;;;11.35;5.30;;;;;;;;;;4938853;29;19914;-77
2022/10/23 13:07:13;;;;;;;14.07;5.97;;;;;;;;;;4938968;29;20474;-75
2022/10/23 13:09:59;;;;;;;13.10;5.10;;;;;;;;;;4938632;29;20044;-76
2022/10/23 13:12:59;;;;;;;12.60;5.45;;;;;;;;;;4944178;29;20047;-77
2022/10/23 13:15:45;;;;;;;15.52;5.50;;;;;;;;;;4938469;29;20051;-76
2022/10/23 13:18:40;;;;;;;8.70;5.20;;;;;;;;;;4938216;29;20051;-76
2022/10/23 13:21:28;;;;;;;7.90;4.78;;;;;;;;;;4938578;29;20400;-75
2022/10/23 13:24:22;;;;;;;8.52;4.65;;;;;;;;;;4945008;29;20055;-75
2022/10/23 13:27:40;;;;;;;9.75;4.40;;;;;;;;;;4945017;29;20503;-76
2022/10/23 13:30:36;;;;;;;7.75;4.72;;;;;;;;;;4907114;29;20047;-76
2022/10/23 13:33:30;;;;;;;10.68;4.85;;;;;;;;;;4944936;29;20393;-76
2022/10/23 13:36:16;;;;;;;;;;;;;;;;;;4945387;29;20044;-76
2022/10/23 13:39:08;;;;;;;8.02;4.03;;;;;;;;;;4938989;29;19915;-76
2022/10/23 13:41:59;;;;;;;9.02;4.38;;;;;;;;;;4943530;29;20043;-76
2022/10/23 13:44:45;;;;;;;11.25;5.07;;;;;;;;;;4944706;29;20039;-77
2022/10/23 13:47:31;;;;;;;12.52;4.95;;;;;;;;;;4938345;29;20047;-75
2022/10/23 13:50:17;;;;;;;9.80;5.18;;;;;;;;;;4944628;29;20040;-75
2022/10/23 13:53:04;;;;;;;11.52;4.70;;;;;;;;;;4944667;29;20055;-75
2022/10/23 13:55:51;;;;;;;8.77;4.55;;;;;;;;;;4943712;29;20405;-76
2022/10/23 13:58:38;;;;;;;9.88;4.47;;;;;;;;;;4938974;29;20039;-76
2022/10/23 14:01:26;;;;;;;11.85;6.32;;;;;;;;;;4937797;29;20044;-76
2022/10/23 14:04:13;;;;;;;14.05;5.70;;;;;;;;;;4943192;29;20047;-75
2022/10/23 14:06:59;;;;;;;14.25;5.93;;;;;;;;;;4944086;29;20481;-75
2022/10/23 14:09:44;;;;;;;18.95;6.20;;;;;;;;;;4937518;29;20047;-76
2022/10/23 14:12:30;;;;;;;15.40;5.93;;;;;;;;;;4937625;29;20044;-76
2022/10/23 14:15:16;;;;;;;12.93;5.78;;;;;;;;;;4937377;29;20044;-76
2022/10/23 14:18:01;;;;;;;13.18;4.85;;;;;;;;;;4937688;29;20047;-77
2022/10/23 14:20:48;;;;;;;14.38;5.70;;;;;;;;;;4937668;29;20051;-78
2022/10/23 14:23:33;;;;;;;12.38;6.05;;;;;;;;;;4923756;29;20386;-79
2022/10/23 14:26:24;;;;;;;12.30;5.60;;;;;;;;;;4929224;29;20031;-78
2022/10/23 14:29:10;;;;;;;16.98;6.13;;;;;;;;;;4935274;29;20051;-77
2022/10/23 14:31:56;;;;;;;14.00;6.97;;;;;;;;;;4943080;29;20502;-76
2022/10/23 14:34:44;;;;;;;12.70;6.00;;;;;;;;;;4937530;29;20047;-77
2022/10/23 14:37:31;;;;;;;14.27;5.85;;;;;;;;;;4942603;29;20051;-77
2022/10/23 14:40:16;;;;;;;12.45;6.72;;;;;;;;;;4923185;29;20047;-78
2022/10/23 14:43:04;;;;;;;15.60;7.60;;;;;;;;;;4937281;29;20048;-78
2022/10/23 14:45:50;;;;;;;19.30;6.35;;;;;;;;;;4937055;29;20047;-79
2022/10/23 14:48:36;;;;;;;12.27;6.18;;;;;;;;;;4943419;29;20405;-79
2022/10/23 14:51:25;;;;;;;15.05;6.15;;;;;;;;;;4937039;29;20051;-78
2022/10/23 14:54:12;;;;;;;13.40;6.10;;;;;;;;;;4936388;29;20047;-79
2022/10/23 14:57:02;;;;;;;18.77;8.02;;;;;;;;;;4929142;29;20051;-78
2022/10/23 14:59:48;;;;;;;16.13;7.60;;;;;;;;;;4936644;29;20039;-79
2022/10/23 15:02:33;;;;;;;21.48;7.70;;;;;;;;;;4943334;29;20048;-78
2022/10/23 15:05:19;;;;;;;15.70;7.28;;;;;;;;;;4943537;29;20047;-79
2022/10/23 15:08:05;;;;;;;22.95;8.10;;;;;;;;;;4942751;29;20051;-78
2022/10/23 15:10:50;;;;;;;21.83;7.85;;;;;;;;;;4936609;29;20052;-78
2022/10/23 15:13:35;;;;;;;13.05;7.30;;;;;;;;;;4940284;29;20055;-80
2022/10/23 15:16:22;;;;;;;18.90;8.60;;;;;;;;;;4937208;29;20044;-76
2022/10/23 15:19:12;;;;;;;46.33;20.70;;;;;;;;;;4942558;29;20039;-77
2022/10/23 15:21:57;;;;;;;38.22;18.42;;;;;;;;;;4943676;29;20051;-76
2022/10/23 15:24:42;;;;;;;30.10;13.90;;;;;;;;;;4942721;29;20055;-77
2022/10/23 15:27:27;;;;;;;24.48;11.20;;;;;;;;;;4936117;29;20047;-78
2022/10/23 15:30:14;;;;;;;26.67;14.27;;;;;;;;;;4942526;29;20051;-79
2022/10/23 15:32:58;;;;;;;28.05;15.43;;;;;;;;;;4936256;29;20493;-80
2022/10/23 15:35:44;;;;;;;34.67;16.63;;;;;;;;;;4936308;29;20048;-79
2022/10/23 15:38:31;;;;;;;31.35;16.02;;;;;;;;;;4942891;29;20047;-79
2022/10/23 15:41:29;;;;;;;28.35;13.95;;;;;;;;;;4935719;29;20485;-79
2022/10/23 15:44:16;;;;;;;33.22;20.98;;;;;;;;;;4943054;29;20047;-81
2022/10/23 15:47:02;;;;;;;182.60;106.00;;;;;;;;;;4936809;29;20048;-77
2022/10/23 15:49:48;;;;;;;46.33;28.38;;;;;;;;;;4936055;29;20048;-80
2022/10/23 15:52:34;;;;;;;80.68;41.55;;;;;;;;;;4936782;29;20051;-80
2022/10/23 15:55:20;;;;;;;53.78;29.52;;;;;;;;;;4936053;29;20119;-76
2022/10/23 15:58:06;;;;;;;40.65;25.00;;;;;;;;;;4942260;29;20043;-77
2022/10/23 16:00:51;;;;;;;39.17;21.98;;;;;;;;;;4935994;29;20394;-80
2022/10/23 16:03:38;;;;;;;51.20;29.30;;;;;;;;;;4933895;29;20048;-81
2022/10/23 16:06:24;;;;;;;48.83;27.98;;;;;;;;;;4940423;29;20047;-78
2022/10/23 16:09:11;;;;;;;55.88;26.90;;;;;;;;;;4940017;29;20043;-81
2022/10/23 16:11:57;;;;;;;53.95;27.38;;;;;;;;;;4942224;29;20517;-80
2022/10/23 16:14:43;;;;;;;47.33;29.00;;;;;;;;;;4940429;29;20052;-78
2022/10/23 16:17:28;;;;;;;50.72;30.98;;;;;;;;;;4939560;29;20048;-77
2022/10/23 16:20:14;;;;;;;41.38;24.65;;;;;;;;;;4939349;29;20482;-80
2022/10/23 16:22:59;;;;;;;46.22;27.70;;;;;;;;;;4938464;29;20398;-77
2022/10/23 16:25:45;;;;;;;55.30;27.73;;;;;;;;;;4940016;29;20055;-78
2022/10/23 16:28:31;;;;;;;66.20;32.83;;;;;;;;;;4939979;29;20040;-81
2022/10/23 16:31:28;;;;;;;69.22;36.08;;;;;;;;;;4943634;29;20051;-84
2022/10/23 16:34:26;;;;;;;74.95;36.55;;;;;;;;;;4927854;29;20527;-78
2022/10/23 16:37:11;;;;;;;70.53;34.47;;;;;;;;;;4940118;29;20040;-77
2022/10/23 16:40:22;;;;;;;99.05;43.15;;;;;;;;;;4937977;29;20043;-80
2022/10/23 16:43:27;;;;;;;84.03;39.03;;;;;;;;;;4939056;29;20047;-80
2022/10/23 16:46:22;;;;;;;117.15;49.55;;;;;;;;;;4944936;29;20047;-80
2022/10/23 16:49:07;;;;;;;155.68;78.85;;;;;;;;;;4939201;29;20044;-80
2022/10/23 16:51:53;;;;;;;139.75;67.90;;;;;;;;;;4939556;29;20059;-81